Terminal Aerodrome Forecast
Issued by NWS Jackson, KY

Home | Current Version | Previous Version | Graphics & Text | Print | Product List | Glossary On
Versions: 1 2 3 4 5 6 7 8 9 10 11 12 13 14 15 16 17 18 19 20 21 22 23 24 25
305
FTUS43 KJKL 121828 AAA
TAFJKL
TAF AMD
KJKL 121828Z 1218/1318 28007KT P6SM VCSH SCT010 OVC020
     FM130700 32006KT P6SM BKN030=

USA.gov is the U.S. government's official web portal to all federal, state and local government web resources and services.